sensor_id;sensor_type;location;lat;lon;timestamp;temperature;humidity
41816;DHT22;27814;53.452;-6.180;2022-08-14T00:02:22;22.00;95.40
41816;DHT22;27814;53.452;-6.180;2022-08-14T00:04:53;21.90;95.40
41816;DHT22;27814;53.452;-6.180;2022-08-14T00:07:21;21.90;95.40
41816;DHT22;27814;53.452;-6.180;2022-08-14T00:09:51;21.90;95.30
41816;DHT22;27814;53.452;-6.180;2022-08-14T00:12:43;21.90;95.30
41816;DHT22;27814;53.452;-6.180;2022-08-14T00:15:22;21.90;95.40
41816;DHT22;27814;53.452;-6.180;2022-08-14T00:17:51;21.90;95.40
41816;DHT22;27814;53.452;-6.180;2022-08-14T00:20:23;21.80;95.40
41816;DHT22;27814;53.452;-6.180;2022-08-14T00:23:08;21.80;95.40
41816;DHT22;27814;53.452;-6.180;2022-08-14T00:25:46;21.80;95.40
41816;DHT22;27814;53.452;-6.180;2022-08-14T00:28:32;21.80;95.40
41816;DHT22;27814;53.452;-6.180;2022-08-14T00:31:04;21.80;95.50
41816;DHT22;27814;53.452;-6.180;2022-08-14T00:33:35;21.80;95.50
41816;DHT22;27814;53.452;-6.180;2022-08-14T00:36:19;21.70;95.60
41816;DHT22;27814;53.452;-6.180;2022-08-14T00:39:11;21.70;95.70
41816;DHT22;27814;53.452;-6.180;2022-08-14T00:41:41;21.70;95.70
41816;DHT22;27814;53.452;-6.180;2022-08-14T00:44:10;21.70;95.70
41816;DHT22;27814;53.452;-6.180;2022-08-14T00:46:39;21.70;95.70
41816;DHT22;27814;53.452;-6.180;2022-08-14T00:49:08;21.70;95.80
41816;DHT22;27814;53.452;-6.180;2022-08-14T00:51:40;21.60;95.80
41816;DHT22;27814;53.452;-6.180;2022-08-14T00:54:11;21.70;95.90
41816;DHT22;27814;53.452;-6.180;2022-08-14T00:56:51;21.70;96.00
41816;DHT22;27814;53.452;-6.180;2022-08-14T00:59:23;21.70;96.10
41816;DHT22;27814;53.452;-6.180;2022-08-14T01:01:53;21.70;96.20
41816;DHT22;27814;53.452;-6.180;2022-08-14T01:04:25;21.70;96.30
41816;DHT22;27814;53.452;-6.180;2022-08-14T01:07:14;21.70;96.70
41816;DHT22;27814;53.452;-6.180;2022-08-14T01:09:48;21.70;96.50
41816;DHT22;27814;53.452;-6.180;2022-08-14T01:12:19;21.70;96.50
41816;DHT22;27814;53.452;-6.180;2022-08-14T01:14:56;21.70;96.60
41816;DHT22;27814;53.452;-6.180;2022-08-14T01:17:25;21.70;96.80
41816;DHT22;27814;53.452;-6.180;2022-08-14T01:20:19;21.70;96.70
41816;DHT22;27814;53.452;-6.180;2022-08-14T01:23:10;21.70;96.80
41816;DHT22;27814;53.452;-6.180;2022-08-14T01:25:45;21.70;96.90
41816;DHT22;27814;53.452;-6.180;2022-08-14T01:28:13;21.70;97.10
41816;DHT22;27814;53.452;-6.180;2022-08-14T01:31:03;21.60;97.10
41816;DHT22;27814;53.452;-6.180;2022-08-14T01:33:33;21.70;97.20
41816;DHT22;27814;53.452;-6.180;2022-08-14T01:36:28;21.60;97.10
41816;DHT22;27814;53.452;-6.180;2022-08-14T01:39:04;21.60;97.10
41816;DHT22;27814;53.452;-6.180;2022-08-14T01:41:40;21.60;97.10
41816;DHT22;27814;53.452;-6.180;2022-08-14T01:44:11;21.60;97.00
41816;DHT22;27814;53.452;-6.180;2022-08-14T01:47:01;21.60;96.90
41816;DHT22;27814;53.452;-6.180;2022-08-14T01:49:32;21.50;96.90
41816;DHT22;27814;53.452;-6.180;2022-08-14T01:52:06;21.50;97.00
41816;DHT22;27814;53.452;-6.180;2022-08-14T01:54:56;21.50;97.10
41816;DHT22;27814;53.452;-6.180;2022-08-14T01:57:24;21.50;97.20
41816;DHT22;27814;53.452;-6.180;2022-08-14T02:00:13;21.50;97.30
41816;DHT22;27814;53.452;-6.180;2022-08-14T02:02:44;21.50;97.40
41816;DHT22;27814;53.452;-6.180;2022-08-14T02:05:13;21.40;97.50
41816;DHT22;27814;53.452;-6.180;2022-08-14T02:07:42;21.40;97.60
41816;DHT22;27814;53.452;-6.180;2022-08-14T02:10:32;21.40;97.70
41816;DHT22;27814;53.452;-6.180;2022-08-14T02:13:14;21.40;97.80
41816;DHT22;27814;53.452;-6.180;2022-08-14T02:15:45;21.40;97.90
41816;DHT22;27814;53.452;-6.180;2022-08-14T02:18:14;21.40;97.90
41816;DHT22;27814;53.452;-6.180;2022-08-14T02:20:44;21.40;97.90
41816;DHT22;27814;53.452;-6.180;2022-08-14T02:23:14;21.40;97.90
41816;DHT22;27814;53.452;-6.180;2022-08-14T02:26:02;21.40;97.90
41816;DHT22;27814;53.452;-6.180;2022-08-14T02:28:53;21.40;98.00
41816;DHT22;27814;53.452;-6.180;2022-08-14T02:31:26;21.40;98.00
41816;DHT22;27814;53.452;-6.180;2022-08-14T02:34:11;21.40;97.90
41816;DHT22;27814;53.452;-6.180;2022-08-14T02:36:51;21.40;97.90
41816;DHT22;27814;53.452;-6.180;2022-08-14T02:39:32;21.30;97.90
41816;DHT22;27814;53.452;-6.180;2022-08-14T02:42:05;21.30;97.90
41816;DHT22;27814;53.452;-6.180;2022-08-14T02:44:41;21.30;97.90
41816;DHT22;27814;53.452;-6.180;2022-08-14T02:47:16;21.30;97.90
41816;DHT22;27814;53.452;-6.180;2022-08-14T02:49:47;21.20;97.90
41816;DHT22;27814;53.452;-6.180;2022-08-14T02:52:23;21.20;98.00
41816;DHT22;27814;53.452;-6.180;2022-08-14T02:55:11;21.10;98.00
41816;DHT22;27814;53.452;-6.180;2022-08-14T02:57:48;21.10;98.10
41816;DHT22;27814;53.452;-6.180;2022-08-14T03:00:31;21.10;98.10
41816;DHT22;27814;53.452;-6.180;2022-08-14T03:03:06;21.10;98.10
41816;DHT22;27814;53.452;-6.180;2022-08-14T03:05:35;21.10;98.10
41816;DHT22;27814;53.452;-6.180;2022-08-14T03:08:10;21.10;98.10
41816;DHT22;27814;53.452;-6.180;2022-08-14T03:10:45;21.10;98.10
41816;DHT22;27814;53.452;-6.180;2022-08-14T03:13:18;21.10;98.10
41816;DHT22;27814;53.452;-6.180;2022-08-14T03:15:48;21.10;98.10
41816;DHT22;27814;53.452;-6.180;2022-08-14T03:18:24;21.00;98.10
41816;DHT22;27814;53.452;-6.180;2022-08-14T03:21:02;21.10;98.10
41816;DHT22;27814;53.452;-6.180;2022-08-14T03:23:31;21.00;98.10
41816;DHT22;27814;53.452;-6.180;2022-08-14T03:26:06;21.00;98.20
41816;DHT22;27814;53.452;-6.180;2022-08-14T03:28:47;21.00;98.30
41816;DHT22;27814;53.452;-6.180;2022-08-14T03:31:17;21.00;98.40
41816;DHT22;27814;53.452;-6.180;2022-08-14T03:33:51;21.00;98.40
41816;DHT22;27814;53.452;-6.180;2022-08-14T03:36:20;21.00;98.50
41816;DHT22;27814;53.452;-6.180;2022-08-14T03:39:10;21.00;98.50
41816;DHT22;27814;53.452;-6.180;2022-08-14T03:41:51;21.00;98.60
41816;DHT22;27814;53.452;-6.180;2022-08-14T03:44:22;20.90;98.50
41816;DHT22;27814;53.452;-6.180;2022-08-14T03:47:11;20.90;98.60
41816;DHT22;27814;53.452;-6.180;2022-08-14T03:49:41;20.90;98.70
41816;DHT22;27814;53.452;-6.180;2022-08-14T03:52:15;20.90;98.70
41816;DHT22;27814;53.452;-6.180;2022-08-14T03:55:05;20.80;98.70
41816;DHT22;27814;53.452;-6.180;2022-08-14T03:57:35;20.80;98.80
41816;DHT22;27814;53.452;-6.180;2022-08-14T04:00:10;20.80;98.80
41816;DHT22;27814;53.452;-6.180;2022-08-14T04:02:59;20.80;98.90
41816;DHT22;27814;53.452;-6.180;2022-08-14T04:05:28;20.80;98.90
41816;DHT22;27814;53.452;-6.180;2022-08-14T04:08:09;20.80;98.90
41816;DHT22;27814;53.452;-6.180;2022-08-14T04:10:55;20.80;98.90
41816;DHT22;27814;53.452;-6.180;2022-08-14T04:13:27;20.80;98.90
41816;DHT22;27814;53.452;-6.180;2022-08-14T04:16:02;20.70;98.90
41816;DHT22;27814;53.452;-6.180;2022-08-14T04:18:38;20.70;98.90
41816;DHT22;27814;53.452;-6.180;2022-08-14T04:21:08;20.70;99.00
41816;DHT22;27814;53.452;-6.180;2022-08-14T04:23:37;20.70;99.10
41816;DHT22;27814;53.452;-6.180;2022-08-14T04:26:08;20.60;99.10
41816;DHT22;27814;53.452;-6.180;2022-08-14T04:28:52;20.60;99.20
41816;DHT22;27814;53.452;-6.180;2022-08-14T04:31:41;20.70;99.20
41816;DHT22;27814;53.452;-6.180;2022-08-14T04:34:30;20.60;99.10
41816;DHT22;27814;53.452;-6.180;2022-08-14T04:37:03;20.60;99.20
41816;DHT22;27814;53.452;-6.180;2022-08-14T04:39:52;20.60;99.20
41816;DHT22;27814;53.452;-6.180;2022-08-14T04:42:38;20.60;99.30
41816;DHT22;27814;53.452;-6.180;2022-08-14T04:45:25;20.60;99.30
41816;DHT22;27814;53.452;-6.180;2022-08-14T04:48:00;20.50;99.30
41816;DHT22;27814;53.452;-6.180;2022-08-14T04:51:01;20.50;99.30
41816;DHT22;27814;53.452;-6.180;2022-08-14T04:53:30;20.40;99.40
41816;DHT22;27814;53.452;-6.180;2022-08-14T04:56:02;20.50;99.50
41816;DHT22;27814;53.452;-6.180;2022-08-14T04:58:46;20.40;99.60
41816;DHT22;27814;53.452;-6.180;2022-08-14T05:01:15;20.40;99.60
41816;DHT22;27814;53.452;-6.180;2022-08-14T05:03:47;20.50;99.70
41816;DHT22;27814;53.452;-6.180;2022-08-14T05:06:16;20.50;99.70
41816;DHT22;27814;53.452;-6.180;2022-08-14T05:09:04;20.40;99.60
41816;DHT22;27814;53.452;-6.180;2022-08-14T05:11:40;20.40;99.70
41816;DHT22;27814;53.452;-6.180;2022-08-14T05:14:10;20.40;99.70
41816;DHT22;27814;53.452;-6.180;2022-08-14T05:16:59;20.40;99.80
41816;DHT22;27814;53.452;-6.180;2022-08-14T05:19:29;20.40;99.80
41816;DHT22;27814;53.452;-6.180;2022-08-14T05:21:59;20.40;99.80
41816;DHT22;27814;53.452;-6.180;2022-08-14T05:24:46;20.50;99.80
41816;DHT22;27814;53.452;-6.180;2022-08-14T05:27:18;20.50;99.80
41816;DHT22;27814;53.452;-6.180;2022-08-14T05:29:51;20.50;99.90
41816;DHT22;27814;53.452;-6.180;2022-08-14T05:32:21;20.50;99.80
41816;DHT22;27814;53.452;-6.180;2022-08-14T05:34:56;20.50;99.90
41816;DHT22;27814;53.452;-6.180;2022-08-14T05:37:26;20.50;99.90
41816;DHT22;27814;53.452;-6.180;2022-08-14T05:39:56;20.50;99.90
41816;DHT22;27814;53.452;-6.180;2022-08-14T05:42:27;20.50;99.90
41816;DHT22;27814;53.452;-6.180;2022-08-14T05:45:01;20.60;99.90
41816;DHT22;27814;53.452;-6.180;2022-08-14T05:47:31;20.60;99.90
41816;DHT22;27814;53.452;-6.180;2022-08-14T05:50:08;20.60;99.90
41816;DHT22;27814;53.452;-6.180;2022-08-14T05:52:47;20.60;99.90
41816;DHT22;27814;53.452;-6.180;2022-08-14T05:55:17;20.60;99.90
41816;DHT22;27814;53.452;-6.180;2022-08-14T05:57:50;20.70;99.90
41816;DHT22;27814;53.452;-6.180;2022-08-14T06:00:21;20.60;99.90
41816;DHT22;27814;53.452;-6.180;2022-08-14T06:02:55;20.70;99.90
41816;DHT22;27814;53.452;-6.180;2022-08-14T06:05:25;20.70;99.90
41816;DHT22;27814;53.452;-6.180;2022-08-14T06:07:55;20.70;99.90
41816;DHT22;27814;53.452;-6.180;2022-08-14T06:10:25;20.80;99.90
41816;DHT22;27814;53.452;-6.180;2022-08-14T06:12:55;20.80;99.90
41816;DHT22;27814;53.452;-6.180;2022-08-14T06:15:24;20.90;99.90
41816;DHT22;27814;53.452;-6.180;2022-08-14T06:17:57;20.90;99.90
41816;DHT22;27814;53.452;-6.180;2022-08-14T06:20:29;20.90;99.90
41816;DHT22;27814;53.452;-6.180;2022-08-14T06:23:00;20.90;99.90
41816;DHT22;27814;53.452;-6.180;2022-08-14T06:25:29;21.00;99.90
41816;DHT22;27814;53.452;-6.180;2022-08-14T06:27:59;21.00;99.90
41816;DHT22;27814;53.452;-6.180;2022-08-14T06:30:31;21.10;99.90
41816;DHT22;27814;53.452;-6.180;2022-08-14T06:33:13;21.10;99.90
41816;DHT22;27814;53.452;-6.180;2022-08-14T06:35:43;21.20;99.90
41816;DHT22;27814;53.452;-6.180;2022-08-14T06:38:15;21.20;99.90
41816;DHT22;27814;53.452;-6.180;2022-08-14T06:40:44;21.20;99.90
41816;DHT22;27814;53.452;-6.180;2022-08-14T06:43:14;21.20;99.90
41816;DHT22;27814;53.452;-6.180;2022-08-14T06:45:47;21.30;99.90
41816;DHT22;27814;53.452;-6.180;2022-08-14T06:48:21;21.30;99.90
41816;DHT22;27814;53.452;-6.180;2022-08-14T06:50:54;21.30;99.90
41816;DHT22;27814;53.452;-6.180;2022-08-14T06:53:24;21.40;99.90
41816;DHT22;27814;53.452;-6.180;2022-08-14T06:55:54;21.40;99.90
41816;DHT22;27814;53.452;-6.180;2022-08-14T06:58:28;21.50;99.90
41816;DHT22;27814;53.452;-6.180;2022-08-14T07:00:59;21.50;99.90
41816;DHT22;27814;53.452;-6.180;2022-08-14T07:03:54;21.60;99.90
41816;DHT22;27814;53.452;-6.180;2022-08-14T07:06:52;21.60;99.90
41816;DHT22;27814;53.452;-6.180;2022-08-14T07:09:26;21.60;99.90
41816;DHT22;27814;53.452;-6.180;2022-08-14T07:12:10;21.60;99.90
41816;DHT22;27814;53.452;-6.180;2022-08-14T07:14:59;21.60;99.90
41816;DHT22;27814;53.452;-6.180;2022-08-14T07:17:27;21.60;99.90
41816;DHT22;27814;53.452;-6.180;2022-08-14T07:20:00;21.70;99.90
41816;DHT22;27814;53.452;-6.180;2022-08-14T07:22:29;21.70;99.90
41816;DHT22;27814;53.452;-6.180;2022-08-14T07:25:15;21.70;99.90
41816;DHT22;27814;53.452;-6.180;2022-08-14T07:27:45;21.70;99.90
41816;DHT22;27814;53.452;-6.180;2022-08-14T07:30:15;21.80;99.90
41816;DHT22;27814;53.452;-6.180;2022-08-14T07:33:01;21.80;99.90
41816;DHT22;27814;53.452;-6.180;2022-08-14T07:35:29;21.90;99.90
41816;DHT22;27814;53.452;-6.180;2022-08-14T07:38:20;21.90;99.90
41816;DHT22;27814;53.452;-6.180;2022-08-14T07:40:51;22.00;99.90
41816;DHT22;27814;53.452;-6.180;2022-08-14T07:43:20;22.00;99.90
41816;DHT22;27814;53.452;-6.180;2022-08-14T07:45:49;22.10;99.90
41816;DHT22;27814;53.452;-6.180;2022-08-14T07:48:20;22.10;99.90
41816;DHT22;27814;53.452;-6.180;2022-08-14T07:50:51;22.20;99.90
41816;DHT22;27814;53.452;-6.180;2022-08-14T07:53:30;22.20;99.70
41816;DHT22;27814;53.452;-6.180;2022-08-14T07:56:02;22.20;99.50
41816;DHT22;27814;53.452;-6.180;2022-08-14T07:58:51;22.20;99.40
41816;DHT22;27814;53.452;-6.180;2022-08-14T08:01:24;22.20;99.40
41816;DHT22;27814;53.452;-6.180;2022-08-14T08:03:57;22.20;99.30
41816;DHT22;27814;53.452;-6.180;2022-08-14T08:06:27;22.30;99.30
41816;DHT22;27814;53.452;-6.180;2022-08-14T08:09:01;22.30;99.20
41816;DHT22;27814;53.452;-6.180;2022-08-14T08:11:32;22.30;99.20
41816;DHT22;27814;53.452;-6.180;2022-08-14T08:14:05;22.40;99.10
41816;DHT22;27814;53.452;-6.180;2022-08-14T08:16:42;22.40;98.90
41816;DHT22;27814;53.452;-6.180;2022-08-14T08:19:12;22.40;98.80
41816;DHT22;27814;53.452;-6.180;2022-08-14T08:21:45;22.40;98.70
41816;DHT22;27814;53.452;-6.180;2022-08-14T08:24:15;22.50;98.80
41816;DHT22;27814;53.452;-6.180;2022-08-14T08:26:47;22.50;98.70
41816;DHT22;27814;53.452;-6.180;2022-08-14T08:29:18;22.50;98.60
41816;DHT22;27814;53.452;-6.180;2022-08-14T08:31:55;22.40;98.50
41816;DHT22;27814;53.452;-6.180;2022-08-14T08:34:40;22.50;98.60
41816;DHT22;27814;53.452;-6.180;2022-08-14T08:37:12;22.50;98.50
41816;DHT22;27814;53.452;-6.180;2022-08-14T08:39:47;22.50;98.40
41816;DHT22;27814;53.452;-6.180;2022-08-14T08:42:30;22.60;98.40
41816;DHT22;27814;53.452;-6.180;2022-08-14T08:45:14;22.60;98.30
41816;DHT22;27814;53.452;-6.180;2022-08-14T08:47:43;22.70;98.20
41816;DHT22;27814;53.452;-6.180;2022-08-14T08:50:18;22.70;98.10
41816;DHT22;27814;53.452;-6.180;2022-08-14T08:52:57;22.70;98.10
41816;DHT22;27814;53.452;-6.180;2022-08-14T08:55:31;22.80;97.90
41816;DHT22;27814;53.452;-6.180;2022-08-14T08:58:03;22.80;97.80
41816;DHT22;27814;53.452;-6.180;2022-08-14T09:00:47;22.80;97.60
41816;DHT22;27814;53.452;-6.180;2022-08-14T09:03:21;22.80;97.60
41816;DHT22;27814;53.452;-6.180;2022-08-14T09:05:55;22.90;97.60
41816;DHT22;27814;53.452;-6.180;2022-08-14T09:08:25;22.90;97.60
41816;DHT22;27814;53.452;-6.180;2022-08-14T09:11:01;23.00;97.50
41816;DHT22;27814;53.452;-6.180;2022-08-14T09:13:49;23.00;97.40
41816;DHT22;27814;53.452;-6.180;2022-08-14T09:16:19;23.10;97.20
41816;DHT22;27814;53.452;-6.180;2022-08-14T09:18:49;23.00;97.00
41816;DHT22;27814;53.452;-6.180;2022-08-14T09:21:19;23.10;97.00
41816;DHT22;27814;53.452;-6.180;2022-08-14T09:23:52;23.10;97.00
41816;DHT22;27814;53.452;-6.180;2022-08-14T09:26:43;23.10;96.90
41816;DHT22;27814;53.452;-6.180;2022-08-14T09:29:16;23.10;97.00
41816;DHT22;27814;53.452;-6.180;2022-08-14T09:31:52;23.10;97.00
41816;DHT22;27814;53.452;-6.180;2022-08-14T09:34:35;23.10;96.90
41816;DHT22;27814;53.452;-6.180;2022-08-14T09:37:33;23.20;96.70
41816;DHT22;27814;53.452;-6.180;2022-08-14T09:40:12;23.30;96.60
41816;DHT22;27814;53.452;-6.180;2022-08-14T09:42:56;23.40;97.00
41816;DHT22;27814;53.452;-6.180;2022-08-14T09:45:32;23.50;96.60
41816;DHT22;27814;53.452;-6.180;2022-08-14T09:48:20;23.50;96.50
41816;DHT22;27814;53.452;-6.180;2022-08-14T09:50:57;23.70;96.40
41816;DHT22;27814;53.452;-6.180;2022-08-14T09:53:36;23.70;96.30
41816;DHT22;27814;53.452;-6.180;2022-08-14T09:56:28;23.70;96.20
41816;DHT22;27814;53.452;-6.180;2022-08-14T09:59:09;23.70;96.30
41816;DHT22;27814;53.452;-6.180;2022-08-14T10:01:42;23.70;96.20
41816;DHT22;27814;53.452;-6.180;2022-08-14T10:04:20;23.70;96.20
41816;DHT22;27814;53.452;-6.180;2022-08-14T10:07:02;23.70;96.10
41816;DHT22;27814;53.452;-6.180;2022-08-14T10:09:31;23.80;96.10
41816;DHT22;27814;53.452;-6.180;2022-08-14T10:12:01;23.70;95.90
41816;DHT22;27814;53.452;-6.180;2022-08-14T10:14:33;23.70;95.90
41816;DHT22;27814;53.452;-6.180;2022-08-14T10:17:04;23.80;95.90
41816;DHT22;27814;53.452;-6.180;2022-08-14T10:19:45;23.80;95.80
41816;DHT22;27814;53.452;-6.180;2022-08-14T10:22:14;23.80;95.90
41816;DHT22;27814;53.452;-6.180;2022-08-14T10:25:10;23.80;95.80
41816;DHT22;27814;53.452;-6.180;2022-08-14T10:27:41;23.90;95.80
41816;DHT22;27814;53.452;-6.180;2022-08-14T10:30:32;24.00;95.80
41816;DHT22;27814;53.452;-6.180;2022-08-14T10:33:03;24.10;96.20
41816;DHT22;27814;53.452;-6.180;2022-08-14T10:35:42;24.10;95.50
41816;DHT22;27814;53.452;-6.180;2022-08-14T10:38:25;24.10;95.40
41816;DHT22;27814;53.452;-6.180;2022-08-14T10:40:56;24.10;95.30
41816;DHT22;27814;53.452;-6.180;2022-08-14T10:43:36;24.10;95.20
41816;DHT22;27814;53.452;-6.180;2022-08-14T10:46:12;24.10;95.20
41816;DHT22;27814;53.452;-6.180;2022-08-14T10:49:02;24.20;95.30
41816;DHT22;27814;53.452;-6.180;2022-08-14T10:51:32;24.20;95.20
41816;DHT22;27814;53.452;-6.180;2022-08-14T10:54:08;24.20;95.10
41816;DHT22;27814;53.452;-6.180;2022-08-14T10:56:52;24.20;94.80
41816;DHT22;27814;53.452;-6.180;2022-08-14T10:59:21;24.20;94.80
41816;DHT22;27814;53.452;-6.180;2022-08-14T11:02:03;24.10;95.00
41816;DHT22;27814;53.452;-6.180;2022-08-14T11:04:58;24.10;95.20
41816;DHT22;27814;53.452;-6.180;2022-08-14T11:07:31;24.20;95.20
41816;DHT22;27814;53.452;-6.180;2022-08-14T11:10:05;24.10;95.00
41816;DHT22;27814;53.452;-6.180;2022-08-14T11:12:44;24.20;95.10
41816;DHT22;27814;53.452;-6.180;2022-08-14T11:15:16;24.20;94.90
41816;DHT22;27814;53.452;-6.180;2022-08-14T11:17:47;24.20;94.90
41816;DHT22;27814;53.452;-6.180;2022-08-14T11:20:19;24.20;95.10
41816;DHT22;27814;53.452;-6.180;2022-08-14T11:22:51;24.30;95.10
41816;DHT22;27814;53.452;-6.180;2022-08-14T11:25:26;24.30;95.10
41816;DHT22;27814;53.452;-6.180;2022-08-14T11:28:11;24.40;95.00
41816;DHT22;27814;53.452;-6.180;2022-08-14T11:30:47;24.40;94.90
41816;DHT22;27814;53.452;-6.180;2022-08-14T11:33:25;24.50;94.80
41816;DHT22;27814;53.452;-6.180;2022-08-14T11:35:58;24.60;95.30
41816;DHT22;27814;53.452;-6.180;2022-08-14T11:38:35;24.60;94.90
41816;DHT22;27814;53.452;-6.180;2022-08-14T11:41:04;24.70;94.90
41816;DHT22;27814;53.452;-6.180;2022-08-14T11:43:37;24.70;94.80
41816;DHT22;27814;53.452;-6.180;2022-08-14T11:46:07;24.80;94.80
41816;DHT22;27814;53.452;-6.180;2022-08-14T11:48:58;24.90;94.70
41816;DHT22;27814;53.452;-6.180;2022-08-14T11:51:32;25.00;94.50
41816;DHT22;27814;53.452;-6.180;2022-08-14T11:54:20;25.00;94.30
41816;DHT22;27814;53.452;-6.180;2022-08-14T11:57:01;25.10;94.10
41816;DHT22;27814;53.452;-6.180;2022-08-14T11:59:30;25.20;93.90
41816;DHT22;27814;53.452;-6.180;2022-08-14T12:02:08;25.30;94.00
41816;DHT22;27814;53.452;-6.180;2022-08-14T12:04:58;25.30;93.80
41816;DHT22;27814;53.452;-6.180;2022-08-14T12:07:30;25.30;93.80
41816;DHT22;27814;53.452;-6.180;2022-08-14T12:10:00;25.30;93.70
41816;DHT22;27814;53.452;-6.180;2022-08-14T12:12:48;25.40;93.60
41816;DHT22;27814;53.452;-6.180;2022-08-14T12:15:29;25.40;93.40
41816;DHT22;27814;53.452;-6.180;2022-08-14T12:17:58;25.40;93.30
41816;DHT22;27814;53.452;-6.180;2022-08-14T12:20:33;25.40;93.20
41816;DHT22;27814;53.452;-6.180;2022-08-14T12:23:04;25.40;93.30
41816;DHT22;27814;53.452;-6.180;2022-08-14T12:25:33;25.40;93.30
41816;DHT22;27814;53.452;-6.180;2022-08-14T12:28:10;25.40;93.30
41816;DHT22;27814;53.452;-6.180;2022-08-14T12:30:59;25.40;93.20
41816;DHT22;27814;53.452;-6.180;2022-08-14T12:33:38;25.40;93.30
41816;DHT22;27814;53.452;-6.180;2022-08-14T12:36:20;25.40;93.30
41816;DHT22;27814;53.452;-6.180;2022-08-14T12:38:51;25.40;93.10
41816;DHT22;27814;53.452;-6.180;2022-08-14T12:41:22;25.50;93.20
41816;DHT22;27814;53.452;-6.180;2022-08-14T12:44:01;25.50;93.20
41816;DHT22;27814;53.452;-6.180;2022-08-14T12:46:33;25.50;93.20
41816;DHT22;27814;53.452;-6.180;2022-08-14T12:49:08;25.50;93.20
41816;DHT22;27814;53.452;-6.180;2022-08-14T12:51:39;25.60;93.20
41816;DHT22;27814;53.452;-6.180;2022-08-14T12:54:13;25.60;93.00
41816;DHT22;27814;53.452;-6.180;2022-08-14T12:57:03;25.60;92.90
41816;DHT22;27814;53.452;-6.180;2022-08-14T12:59:32;25.60;92.80
41816;DHT22;27814;53.452;-6.180;2022-08-14T13:02:02;25.60;92.70
41816;DHT22;27814;53.452;-6.180;2022-08-14T13:04:38;25.60;92.70
41816;DHT22;27814;53.452;-6.180;2022-08-14T13:07:10;25.60;92.60
41816;DHT22;27814;53.452;-6.180;2022-08-14T13:09:38;25.60;92.50
41816;DHT22;27814;53.452;-6.180;2022-08-14T13:12:07;25.60;92.70
41816;DHT22;27814;53.452;-6.180;2022-08-14T13:14:57;25.60;92.20
41816;DHT22;27814;53.452;-6.180;2022-08-14T13:17:26;25.60;92.00
41816;DHT22;27814;53.452;-6.180;2022-08-14T13:20:04;25.60;92.20
41816;DHT22;27814;53.452;-6.180;2022-08-14T13:22:38;25.60;92.20
41816;DHT22;27814;53.452;-6.180;2022-08-14T13:25:12;25.70;92.00
41816;DHT22;27814;53.452;-6.180;2022-08-14T13:27:44;25.70;91.90
41816;DHT22;27814;53.452;-6.180;2022-08-14T13:30:16;25.80;92.00
41816;DHT22;27814;53.452;-6.180;2022-08-14T13:32:51;25.80;92.20
41816;DHT22;27814;53.452;-6.180;2022-08-14T13:35:20;25.80;92.20
41816;DHT22;27814;53.452;-6.180;2022-08-14T13:37:50;25.90;92.30
41816;DHT22;27814;53.452;-6.180;2022-08-14T13:40:21;25.90;92.10
41816;DHT22;27814;53.452;-6.180;2022-08-14T13:42:53;25.90;92.10
41816;DHT22;27814;53.452;-6.180;2022-08-14T13:45:24;25.90;92.10
41816;DHT22;27814;53.452;-6.180;2022-08-14T13:48:12;25.90;91.90
41816;DHT22;27814;53.452;-6.180;2022-08-14T13:50:59;25.90;91.80
41816;DHT22;27814;53.452;-6.180;2022-08-14T13:53:35;25.90;91.80
41816;DHT22;27814;53.452;-6.180;2022-08-14T13:56:30;26.00;91.70
41816;DHT22;27814;53.452;-6.180;2022-08-14T13:59:03;26.00;91.50
41816;DHT22;27814;53.452;-6.180;2022-08-14T14:01:33;26.00;91.60
41816;DHT22;27814;53.452;-6.180;2022-08-14T14:04:12;26.10;91.60
41816;DHT22;27814;53.452;-6.180;2022-08-14T14:06:47;26.20;91.40
41816;DHT22;27814;53.452;-6.180;2022-08-14T14:09:25;26.10;91.20
41816;DHT22;27814;53.452;-6.180;2022-08-14T14:12:15;26.10;91.20
41816;DHT22;27814;53.452;-6.180;2022-08-14T14:15:04;26.10;91.30
41816;DHT22;27814;53.452;-6.180;2022-08-14T14:17:36;26.10;91.10
41816;DHT22;27814;53.452;-6.180;2022-08-14T14:20:07;26.10;91.10
41816;DHT22;27814;53.452;-6.180;2022-08-14T14:22:57;26.20;91.10
41816;DHT22;27814;53.452;-6.180;2022-08-14T14:25:30;26.20;90.90
41816;DHT22;27814;53.452;-6.180;2022-08-14T14:28:13;26.20;90.70
41816;DHT22;27814;53.452;-6.180;2022-08-14T14:30:52;26.20;90.70
41816;DHT22;27814;53.452;-6.180;2022-08-14T14:33:33;26.30;90.60
41816;DHT22;27814;53.452;-6.180;2022-08-14T14:36:19;26.30;90.40
41816;DHT22;27814;53.452;-6.180;2022-08-14T14:38:51;26.30;90.30
41816;DHT22;27814;53.452;-6.180;2022-08-14T14:41:23;26.30;90.30
41816;DHT22;27814;53.452;-6.180;2022-08-14T14:43:53;26.20;90.10
41816;DHT22;27814;53.452;-6.180;2022-08-14T14:46:25;26.20;90.10
41816;DHT22;27814;53.452;-6.180;2022-08-14T14:49:04;26.20;90.00
41816;DHT22;27814;53.452;-6.180;2022-08-14T14:51:34;26.20;89.90
41816;DHT22;27814;53.452;-6.180;2022-08-14T14:54:09;26.20;90.30
41816;DHT22;27814;53.452;-6.180;2022-08-14T14:56:40;26.10;89.80
41816;DHT22;27814;53.452;-6.180;2022-08-14T14:59:18;26.00;89.70
41816;DHT22;27814;53.452;-6.180;2022-08-14T15:01:48;26.00;89.80
41816;DHT22;27814;53.452;-6.180;2022-08-14T15:04:17;26.00;89.60
41816;DHT22;27814;53.452;-6.180;2022-08-14T15:06:47;25.90;89.40
41816;DHT22;27814;53.452;-6.180;2022-08-14T15:09:19;25.90;89.50
41816;DHT22;27814;53.452;-6.180;2022-08-14T15:11:51;25.90;89.40
41816;DHT22;27814;53.452;-6.180;2022-08-14T15:14:20;25.80;89.30
41816;DHT22;27814;53.452;-6.180;2022-08-14T15:17:08;25.90;89.20
41816;DHT22;27814;53.452;-6.180;2022-08-14T15:19:37;25.80;89.20
41816;DHT22;27814;53.452;-6.180;2022-08-14T15:22:05;25.80;89.60
41816;DHT22;27814;53.452;-6.180;2022-08-14T15:24:37;25.80;89.70
41816;DHT22;27814;53.452;-6.180;2022-08-14T15:27:07;25.80;89.20
41816;DHT22;27814;53.452;-6.180;2022-08-14T15:29:36;25.70;89.10
41816;DHT22;27814;53.452;-6.180;2022-08-14T15:32:09;25.70;88.90
41816;DHT22;27814;53.452;-6.180;2022-08-14T15:34:37;25.60;88.70
41816;DHT22;27814;53.452;-6.180;2022-08-14T15:37:18;25.60;89.20
41816;DHT22;27814;53.452;-6.180;2022-08-14T15:39:49;25.50;89.30
41816;DHT22;27814;53.452;-6.180;2022-08-14T15:42:20;25.50;89.60
41816;DHT22;27814;53.452;-6.180;2022-08-14T15:44:50;25.40;89.60
41816;DHT22;27814;53.452;-6.180;2022-08-14T15:47:27;25.40;89.90
41816;DHT22;27814;53.452;-6.180;2022-08-14T15:49:57;25.30;90.00
41816;DHT22;27814;53.452;-6.180;2022-08-14T15:52:27;25.30;90.10
41816;DHT22;27814;53.452;-6.180;2022-08-14T15:55:03;25.30;90.10
41816;DHT22;27814;53.452;-6.180;2022-08-14T15:57:34;25.20;90.20
41816;DHT22;27814;53.452;-6.180;2022-08-14T16:00:04;25.20;90.10
41816;DHT22;27814;53.452;-6.180;2022-08-14T16:03:10;25.10;90.00
41816;DHT22;27814;53.452;-6.180;2022-08-14T16:05:42;25.00;90.20
41816;DHT22;27814;53.452;-6.180;2022-08-14T16:08:12;25.00;90.20
41816;DHT22;27814;53.452;-6.180;2022-08-14T16:10:54;24.90;90.40